SCFU weather

Loncopan Airport
Futrono, Los RĂ­os Region, Chile

Public forecast

Using degrees Celsius for public forecast. Weather courtesy of forecast.io.

Closest aviation weather report (METAR) to Loncopan Airport

Closest report is Pichoy Airport, 35.5 nm (65.8 km) NW. Retrieved 2020/01/26 04:00 UTC (52 minutes ago):

SCVD 260400Z AUTO VRB02KT 9999 FEW031 OVC044 16/15 Q1019

Closest aviation forecast (TAF) to Loncopan Airport

Forecast is more than 12 hours old.

Closest forecast is Pichoy Airport, 35.5 nm (65.8 km) NW. Retrieved 2020/01/25 12:00 UTC (17 hours ago):

TAF SCVD 251021Z 2512/2524 18004KT 9999 BKN045 SCT170 TN10/2512Z TX23/2519Z BECMG 2514/2516 29008KT BECMG 2522/2524 VRB02KT SCT030